Time;durP1;ratioP1;P1;durP2;ratioP2;P2;SDS_P1;SDS_P2;PMS_P1;PMS_P2;Temp;Humidity;BMP_temperature;BMP_pressure;BME280_temperature;BME280_humidity;BME280_pressure;Samples;Min_cycle;Max_cycle;Signal;HPM_P1;HPM_P2
2021/05/03 00:00:08;;;;;;;;;;;;;;;12.01;53.09;101208.66;5072440;27;96990;-79
2021/05/03 00:02:35;;;;;;;;;;;;;;;11.70;53.63;101218.47;5077892;27;97901;-80
2021/05/03 00:05:00;;;;;;;;;;;;;;;11.59;53.80;101206.47;5070774;27;99378;-79
2021/05/03 00:07:26;;;;;;;;;;;;;;;11.67;54.11;101210.66;5083004;27;96962;-78
2021/05/03 00:09:52;;;;;;;;;;;;;;;11.83;53.48;101209.25;5083640;27;96852;-78
2021/05/03 00:12:19;;;;;;;;;;;;;;;11.25;54.63;101220.81;5076635;27;98069;-81
2021/05/03 00:14:45;;;;;;;;;;;;;;;11.89;53.77;101211.69;5076274;27;101661;-78
2021/05/03 00:17:10;;;;;;;;;;;;;;;11.83;53.47;101217.19;5080674;27;97063;-80
2021/05/03 00:19:37;;;;;;;;;;;;;;;11.68;54.11;101222.97;5074729;27;96945;-80
2021/05/03 00:22:03;;;;;;;;;;;;;;;11.69;54.37;101224.69;5081199;27;99386;-81
2021/05/03 00:24:29;;;;;;;;;;;;;;;12.09;53.07;101218.97;5070474;27;99507;-80
2021/05/03 00:26:55;;;;;;;;;;;;;;;12.01;53.38;101223.69;5076300;27;98277;-79
2021/05/03 00:29:22;;;;;;;;;;;;;;;11.67;54.19;101218.59;5084482;27;97142;-80
2021/05/03 00:31:47;;;;;;;;;;;;;;;11.66;54.12;101224.81;5087677;27;97769;-79
2021/05/03 00:34:13;;;;;;;;;;;;;;;11.88;53.60;101231.16;5085458;27;98027;-80
2021/05/03 00:36:39;;;;;;;;;;;;;;;11.93;53.57;101230.09;5077551;27;100801;-79
2021/05/03 00:39:05;;;;;;;;;;;;;;;11.44;54.13;101227.25;5085572;27;96843;-79
2021/05/03 00:41:31;;;;;;;;;;;;;;;11.32;54.95;101235.56;5080973;27;97090;-78
2021/05/03 00:43:57;;;;;;;;;;;;;;;11.48;54.55;101221.84;5080542;27;97829;-79
2021/05/03 00:46:24;;;;;;;;;;;;;;;11.36;54.11;101235.41;5078860;27;96961;-79
2021/05/03 00:48:50;;;;;;;;;;;;;;;11.52;54.24;101233.19;5081619;27;97885;-79
2021/05/03 00:51:16;;;;;;;;;;;;;;;11.52;53.56;101249.06;5079010;27;98950;-78
2021/05/03 00:53:42;;;;;;;;;;;;;;;11.90;52.80;101242.56;5078450;27;98912;-79
2021/05/03 00:56:08;;;;;;;;;;;;;;;11.71;52.97;101242.25;5078731;27;97476;-79
2021/05/03 00:58:34;;;;;;;;;;;;;;;11.71;53.63;101241.41;5066728;27;96926;-79
2021/05/03 01:01:00;;;;;;;;;;;;;;;11.85;52.95;101247.13;5086290;27;100151;-79
2021/05/03 01:03:27;;;;;;;;;;;;;;;11.65;53.15;101250.41;5083150;27;101333;-79
2021/05/03 01:05:54;;;;;;;;;;;;;;;11.81;52.97;101250.81;5073715;27;96680;-78
2021/05/03 01:08:19;;;;;;;;;;;;;;;11.45;53.67;101253.66;5070118;27;97047;-78
2021/05/03 01:10:45;;;;;;;;;;;;;;;11.70;52.65;101248.47;5082923;27;100784;-78
2021/05/03 01:13:11;;;;;;;;;;;;;;;11.26;53.36;101251.63;5084316;27;97834;-79
2021/05/03 01:15:37;;;;;;;;;;;;;;;11.81;53.04;101254.34;5091353;27;98194;-80
2021/05/03 01:18:04;;;;;;;;;;;;;;;11.63;52.56;101254.88;5092133;27;96984;-78
2021/05/03 01:20:32;;;;;;;;;;;;;;;11.53;53.10;101259.59;5087751;27;97994;-79
2021/05/03 01:22:59;;;;;;;;;;;;;;;11.35;52.83;101256.66;5095624;27;98060;-79
2021/05/03 01:25:27;;;;;;;;;;;;;;;11.24;54.01;101256.97;5095377;27;97799;-79
2021/05/03 01:27:53;;;;;;;;;;;;;;;11.42;53.56;101263.50;5096320;27;97205;-79
2021/05/03 01:30:20;;;;;;;;;;;;;;;11.18;53.39;101255.38;5081816;27;98093;-79
2021/05/03 01:32:46;;;;;;;;;;;;;;;11.45;53.35;101264.25;5088123;27;97274;-78
2021/05/03 01:35:13;;;;;;;;;;;;;;;11.26;53.92;101268.38;5083998;27;96788;-79
2021/05/03 01:37:39;;;;;;;;;;;;;;;11.70;52.97;101268.78;5080079;27;97456;-79
2021/05/03 01:40:07;;;;;;;;;;;;;;;11.64;53.09;101274.25;5077531;27;98866;-80
2021/05/03 01:42:35;;;;;;;;;;;;;;;11.59;53.23;101274.41;5077898;27;98736;-79
2021/05/03 01:45:01;;;;;;;;;;;;;;;11.46;53.36;101279.22;5074557;27;96889;-80
2021/05/03 01:47:27;;;;;;;;;;;;;;;11.35;54.04;101275.19;5072799;27;96862;-79
2021/05/03 01:49:53;;;;;;;;;;;;;;;11.08;54.04;101275.09;5076678;27;98815;-79
2021/05/03 01:52:19;;;;;;;;;;;;;;;10.65;55.22;101270.13;5067571;27;98814;-79
2021/05/03 01:54:45;;;;;;;;;;;;;;;10.02;56.40;101274.44;5074418;27;97099;-79
2021/05/03 01:57:11;;;;;;;;;;;;;;;10.66;55.76;101276.28;5071106;27;96966;-78
2021/05/03 01:59:39;;;;;;;;;;;;;;;10.77;54.56;101280.38;5073352;27;99225;-79
2021/05/03 02:02:04;;;;;;;;;;;;;;;10.80;54.83;101284.72;5071107;27;99310;-79
2021/05/03 02:04:31;;;;;;;;;;;;;;;10.60;55.13;101281.75;5069968;27;97090;-80
2021/05/03 02:06:57;;;;;;;;;;;;;;;10.87;54.98;101290.69;5068397;27;97837;-80
2021/05/03 02:09:23;;;;;;;;;;;;;;;11.10;53.88;101296.19;5079001;27;100552;-80
2021/05/03 02:11:49;;;;;;;;;;;;;;;10.86;53.75;101288.94;5076844;27;100655;-79
2021/05/03 02:14:16;;;;;;;;;;;;;;;10.85;53.98;101297.78;5074506;27;96709;-80
2021/05/03 02:16:43;;;;;;;;;;;;;;;10.71;54.51;101298.16;5079504;27;96965;-80
2021/05/03 02:19:08;;;;;;;;;;;;;;;10.88;53.62;101295.94;5094185;27;97916;-80
2021/05/03 02:21:34;;;;;;;;;;;;;;;10.53;54.28;101296.91;5092962;27;98745;-80
2021/05/03 02:24:00;;;;;;;;;;;;;;;10.60;53.94;101303.75;5085783;27;96257;-80
2021/05/03 02:26:26;;;;;;;;;;;;;;;10.73;54.30;101294.59;5084905;27;96825;-80
2021/05/03 02:28:52;;;;;;;;;;;;;;;10.75;53.48;101302.47;5087827;27;97682;-80
2021/05/03 02:31:19;;;;;;;;;;;;;;;10.08;55.24;101298.03;5096014;27;97954;-80
2021/05/03 02:33:44;;;;;;;;;;;;;;;10.45;54.24;101296.22;5081073;27;96593;-79
2021/05/03 02:36:10;;;;;;;;;;;;;;;10.52;53.91;101300.44;5073075;27;97042;-79
2021/05/03 02:38:36;;;;;;;;;;;;;;;10.59;53.71;101306.44;5064140;27;99014;-80
2021/05/03 02:41:02;;;;;;;;;;;;;;;10.28;54.03;101301.94;5078365;27;98793;-79
2021/05/03 02:43:28;;;;;;;;;;;;;;;10.09;54.23;101311.22;5061923;27;96817;-80
2021/05/03 02:45:54;;;;;;;;;;;;;;;9.93;54.88;101320.38;5071093;27;96813;-79
2021/05/03 02:48:20;;;;;;;;;;;;;;;10.37;53.90;101317.56;5073429;27;98870;-79
2021/05/03 02:50:46;;;;;;;;;;;;;;;10.31;53.96;101317.72;5075074;27;99216;-80
2021/05/03 02:53:12;;;;;;;;;;;;;;;9.98;54.72;101319.38;5076069;27;96747;-81
2021/05/03 02:55:37;;;;;;;;;;;;;;;10.00;55.11;101320.22;5078110;27;97977;-80
2021/05/03 02:58:03;;;;;;;;;;;;;;;9.76;55.50;101330.50;5062146;27;98942;-80
2021/05/03 03:00:31;;;;;;;;;;;;;;;10.00;55.08;101336.06;5067505;27;98169;-79
2021/05/03 03:02:56;;;;;;;;;;;;;;;10.03;54.69;101331.63;5071727;27;96834;-79
2021/05/03 03:05:23;;;;;;;;;;;;;;;9.91;54.11;101325.69;5066160;27;96921;-79
2021/05/03 03:07:49;;;;;;;;;;;;;;;9.95;54.74;101331.78;5067702;27;99420;-79
2021/05/03 03:10:15;;;;;;;;;;;;;;;10.19;54.01;101331.22;5073287;27;99016;-79
2021/05/03 03:12:41;;;;;;;;;;;;;;;10.35;53.01;101335.25;5076069;27;96759;-80
2021/05/03 03:15:09;;;;;;;;;;;;;;;9.78;54.89;101336.59;5071815;27;98854;-79
2021/05/03 03:17:35;;;;;;;;;;;;;;;9.45;55.23;101346.13;5067876;27;98863;-79
2021/05/03 03:20:01;;;;;;;;;;;;;;;9.55;55.57;101345.91;5068057;27;97828;-78
2021/05/03 03:22:27;;;;;;;;;;;;;;;10.16;54.04;101343.63;5071758;27;96771;-79
2021/05/03 03:24:53;;;;;;;;;;;;;;;10.18;53.60;101345.34;5064704;27;96952;-79
2021/05/03 03:27:19;;;;;;;;;;;;;;;9.89;54.13;101348.66;5073591;27;100316;-80
2021/05/03 03:29:45;;;;;;;;;;;;;;;9.61;54.45;101350.16;5076995;27;98771;-80
2021/05/03 03:32:11;;;;;;;;;;;;;;;9.93;54.01;101357.34;5064243;27;96976;-79
2021/05/03 03:34:37;;;;;;;;;;;;;;;9.51;54.30;101359.19;5071774;27;96946;-79
2021/05/03 03:37:02;;;;;;;;;;;;;;;9.70;53.95;101360.53;5070377;27;98886;-79
2021/05/03 03:39:29;;;;;;;;;;;;;;;9.87;53.99;101357.50;5065129;27;98809;-79
2021/05/03 03:41:55;;;;;;;;;;;;;;;10.05;53.81;101364.97;5073301;27;96789;-79
2021/05/03 03:44:22;;;;;;;;;;;;;;;10.25;52.71;101375.09;5074553;27;96977;-79
2021/05/03 03:46:50;;;;;;;;;;;;;;;10.14;53.15;101366.53;5068313;27;98087;-80
2021/05/03 03:49:16;;;;;;;;;;;;;;;9.85;53.85;101377.75;5071517;27;98213;-80
2021/05/03 03:51:42;;;;;;;;;;;;;;;9.84;53.64;101373.41;5073835;27;96741;-81
2021/05/03 03:54:08;;;;;;;;;;;;;;;9.88;53.21;101375.94;5072195;27;98610;-81
2021/05/03 03:56:35;;;;;;;;;;;;;;;9.39;54.90;101385.81;5074926;27;99078;-80
2021/05/03 03:59:01;;;;;;;;;;;;;;;9.90;54.03;101376.78;5072956;27;98944;-79
2021/05/03 04:01:29;;;;;;;;;;;;;;;9.57;53.83;101388.09;5063668;27;96945;-80
2021/05/03 04:04:01;;;;;;;;;;;;;;;9.56;54.56;101384.56;5070256;27;97903;-80
2021/05/03 04:06:36;;;;;;;;;;;;;;;9.79;53.67;101384.06;5073748;27;99264;-80
2021/05/03 04:09:08;;;;;;;;;;;;;;;10.02;53.30;101390.59;5071358;27;99139;-81
2021/05/03 04:11:52;;;;;;;;;;;;;;;9.87;53.28;101397.09;5068611;27;97656;-80
2021/05/03 04:23:00;;;;;;;;;;;;;;;9.27;54.34;101402.75;5074410;27;98101;-80
2021/05/03 04:25:31;;;;;;;;;;;;;;;9.96;52.86;101400.41;5076102;27;96995;-80
2021/05/03 04:27:58;;;;;;;;;;;;;;;10.22;52.13;101406.88;5065895;27;99328;-79
2021/05/03 04:30:23;;;;;;;;;;;;;;;10.08;52.62;101419.50;5068300;27;102835;-79
2021/05/03 04:32:49;;;;;;;;;;;;;;;9.55;53.27;101408.34;5065860;27;96853;-79
2021/05/03 04:35:15;;;;;;;;;;;;;;;9.95;52.90;101411.00;5068574;27;98218;-78
2021/05/03 04:37:41;;;;;;;;;;;;;;;10.22;52.16;101423.59;5070567;27;99340;-79
2021/05/03 04:40:07;;;;;;;;;;;;;;;10.35;52.10;101424.19;5074300;27;99107;-79
2021/05/03 04:42:33;;;;;;;;;;;;;;;10.27;51.68;101420.84;5075161;27;97159;-79
2021/05/03 04:45:00;;;;;;;;;;;;;;;10.26;51.78;101425.25;5074916;27;97802;-79
2021/05/03 04:47:26;;;;;;;;;;;;;;;10.63;50.88;101430.50;5075763;27;98935;-79
2021/05/03 04:49:51;;;;;;;;;;;;;;;10.27;51.67;101420.84;5073425;27;101003;-80
2021/05/03 04:52:17;;;;;;;;;;;;;;;10.47;51.45;101429.16;5075661;27;96639;-79
2021/05/03 04:54:43;;;;;;;;;;;;;;;10.54;51.03;101436.03;5076905;27;96875;-80
2021/05/03 04:57:09;;;;;;;;;;;;;;;10.60;50.73;101427.97;5079344;27;98824;-80
2021/05/03 04:59:34;;;;;;;;;;;;;;;10.16;51.88;101434.28;5076839;27;99043;-78
2021/05/03 05:02:01;;;;;;;;;;;;;;;10.27;51.60;101426.13;5075896;27;98737;-78
2021/05/03 05:04:27;;;;;;;;;;;;;;;10.73;50.86;101425.88;5064866;27;96870;-80
2021/05/03 05:06:56;;;;;;;;;;;;;;;10.42;51.50;101433.69;5061661;27;97741;-79
2021/05/03 05:09:22;;;;;;;;;;;;;;;10.61;51.24;101434.13;5066945;27;98878;-79
2021/05/03 05:11:47;;;;;;;;;;;;;;;10.97;50.09;101434.94;5070066;27;96777;-79
2021/05/03 05:14:13;;;;;;;;;;;;;;;10.39;51.64;101445.19;5067872;27;98846;-78
2021/05/03 05:16:42;;;;;;;;;;;;;;;9.97;52.06;101438.25;5078669;27;98766;-79
2021/05/03 05:19:09;;;;;;;;;;;;;;;9.90;52.66;101447.19;5078186;27;98730;-79
2021/05/03 05:21:35;;;;;;;;;;;;;;;10.56;51.19;101441.31;5079876;27;96730;-80
2021/05/03 05:24:01;;;;;;;;;;;;;;;10.68;50.60;101444.50;5079144;27;96801;-80
2021/05/03 05:26:26;;;;;;;;;;;;;;;10.57;50.75;101448.28;5070359;27;98931;-79
2021/05/03 05:28:52;;;;;;;;;;;;;;;10.54;50.27;101449.25;5061580;27;99148;-80
2021/05/03 05:31:18;;;;;;;;;;;;;;;10.44;50.81;101453.00;5074647;27;96873;-79
2021/05/03 05:33:44;;;;;;;;;;;;;;;10.41;51.04;101455.75;5066836;27;97007;-80
2021/05/03 05:36:11;;;;;;;;;;;;;;;10.32;51.21;101453.31;5077106;27;98941;-80
2021/05/03 05:38:38;;;;;;;;;;;;;;;10.06;51.07;101455.63;5073128;27;98866;-81
2021/05/03 05:41:04;;;;;;;;;;;;;;;10.10;51.74;101446.75;5076075;27;96884;-79
2021/05/03 05:43:29;;;;;;;;;;;;;;;10.45;50.74;101449.47;5070004;27;99088;-79
2021/05/03 05:45:55;;;;;;;;;;;;;;;10.56;50.93;101460.66;5070756;27;99332;-80
2021/05/03 05:48:21;;;;;;;;;;;;;;;10.02;51.63;101456.63;5070771;27;99050;-80
2021/05/03 05:50:47;;;;;;;;;;;;;;;10.36;51.39;101460.28;5074280;27;97616;-80
2021/05/03 05:53:14;;;;;;;;;;;;;;;10.44;51.07;101460.94;5073304;27;98481;-80
2021/05/03 05:55:40;;;;;;;;;;;;;;;10.28;50.75;101464.84;5077649;27;100954;-80
2021/05/03 05:58:06;;;;;;;;;;;;;;;10.97;49.79;101461.38;5072820;27;99017;-79
2021/05/03 06:00:32;;;;;;;;;;;;;;;10.87;50.09;101465.19;5080660;27;98948;-80
2021/05/03 06:02:57;;;;;;;;;;;;;;;11.07;49.29;101469.06;5083564;27;98688;-80
2021/05/03 06:05:24;;;;;;;;;;;;;;;11.85;47.37;101469.56;5087002;27;98007;-79
2021/05/03 06:07:50;;;;;;;;;;;;;;;12.15;46.42;101463.34;5091810;27;97757;-79
2021/05/03 06:10:17;;;;;;;;;;;;;;;12.03;46.54;101468.16;5092725;27;96852;-79
2021/05/03 06:12:42;;;;;;;;;;;;;;;10.86;49.03;101471.38;5091342;27;99271;-79
2021/05/03 06:15:09;;;;;;;;;;;;;;;11.41;48.12;101463.75;5091682;27;98056;-79
2021/05/03 06:17:37;;;;;;;;;;;;;;;11.59;46.69;101463.22;5085459;27;98562;-80
2021/05/03 06:20:03;;;;;;;;;;;;;;;11.56;47.38;101465.94;5080105;27;97447;-81
2021/05/03 06:22:31;;;;;;;;;;;;;;;12.12;46.40;101473.19;5077210;27;97640;-81
2021/05/03 06:24:59;;;;;;;;;;;;;;;11.56;46.84;101463.28;5073734;27;99040;-78
2021/05/03 06:27:26;;;;;;;;;;;;;;;12.02;46.17;101461.97;5070866;27;99117;-79
2021/05/03 06:29:52;;;;;;;;;;;;;;;12.70;44.39;101461.59;5072376;27;99031;-78
2021/05/03 06:32:18;;;;;;;;;;;;;;;14.16;41.84;101459.03;5076746;27;96830;-78
2021/05/03 06:34:44;;;;;;;;;;;;;;;14.20;40.44;101465.94;5067786;27;98774;-78
2021/05/03 06:37:10;;;;;;;;;;;;;;;15.01;39.46;101460.88;5070536;27;98368;-80
2021/05/03 06:39:37;;;;;;;;;;;;;;;15.01;39.08;101467.06;5073114;27;98582;-80
2021/05/03 06:42:03;;;;;;;;;;;;;;;14.44;40.33;101465.00;5073243;27;97880;-79
2021/05/03 06:44:30;;;;;;;;;;;;;;;14.36;40.27;101467.09;5081186;27;98828;-80
2021/05/03 06:47:00;;;;;;;;;;;;;;;13.49;42.55;101474.81;5069752;27;98917;-79
2021/05/03 06:49:26;;;;;;;;;;;;;;;13.90;41.49;101474.19;5069864;27;98548;-79
2021/05/03 06:51:54;;;;;;;;;;;;;;;14.44;41.22;101472.13;5069565;27;98577;-79
2021/05/03 06:54:20;;;;;;;;;;;;;;;14.82;39.45;101462.59;5067442;27;97814;-79
2021/05/03 06:56:46;;;;;;;;;;;;;;;14.19;40.79;101461.53;5067033;27;97763;-78
2021/05/03 06:59:12;;;;;;;;;;;;;;;14.34;40.23;101468.91;5064224;27;97670;-78
2021/05/03 07:01:39;;;;;;;;;;;;;;;14.00;40.46;101469.38;5067301;27;97260;-80
2021/05/03 07:04:05;;;;;;;;;;;;;;;14.11;40.60;101472.47;5067073;27;101448;-77
2021/05/03 07:06:31;;;;;;;;;;;;;;;13.87;40.40;101481.38;5062501;27;102043;-79
2021/05/03 07:08:57;;;;;;;;;;;;;;;14.57;39.81;101476.88;5058692;27;97658;-78
2021/05/03 07:11:27;;;;;;;;;;;;;;;14.24;39.38;101480.84;5069972;27;97240;-78
2021/05/03 07:13:53;;;;;;;;;;;;;;;13.29;40.96;101487.94;5065866;27;99081;-78
2021/05/03 07:16:19;;;;;;;;;;;;;;;13.54;41.67;101481.69;5068467;27;98659;-79
2021/05/03 07:18:46;;;;;;;;;;;;;;;13.09;41.77;101481.50;5071812;27;97137;-80
2021/05/03 07:21:12;;;;;;;;;;;;;;;12.77;42.86;101494.97;5064519;27;97204;-78
2021/05/03 07:23:38;;;;;;;;;;;;;;;13.33;41.61;101494.84;5068316;27;99271;-78
2021/05/03 07:26:06;;;;;;;;;;;;;;;13.19;42.06;101502.44;5064634;27;99066;-78
2021/05/03 07:28:32;;;;;;;;;;;;;;;12.90;43.38;101496.31;5065593;27;99531;-78
2021/05/03 07:30:59;;;;;;;;;;;;;;;13.67;42.06;101495.41;5066954;27;99642;-79
2021/05/03 07:33:25;;;;;;;;;;;;;;;12.59;43.38;101495.56;5066921;27;99162;-79
2021/05/03 07:35:52;;;;;;;;;;;;;;;12.95;42.66;101504.97;5070687;27;99291;-78
2021/05/03 07:38:18;;;;;;;;;;;;;;;13.23;41.70;101494.31;5070109;27;98160;-79
2021/05/03 07:40:44;;;;;;;;;;;;;;;14.39;40.24;101493.56;5070556;27;97664;-79
2021/05/03 07:43:10;;;;;;;;;;;;;;;14.41;40.28;101489.06;5070280;27;100452;-79
2021/05/03 07:45:36;;;;;;;;;;;;;;;12.77;42.59;101493.19;5071229;27;98847;-79
2021/05/03 07:48:02;;;;;;;;;;;;;;;13.81;41.42;101484.25;5075420;27;97364;-78
2021/05/03 07:50:27;;;;;;;;;;;;;;;14.41;40.00;101483.75;5067951;27;96807;-79
2021/05/03 07:52:55;;;;;;;;;;;;;;;14.68;39.18;101477.31;5074286;27;100012;-79
2021/05/03 07:55:21;;;;;;;;;;;;;;;14.21;39.84;101484.50;5076542;27;99130;-79
2021/05/03 07:57:47;;;;;;;;;;;;;;;13.60;40.80;101488.56;5066050;27;97933;-79
2021/05/03 08:00:14;;;;;;;;;;;;;;;14.14;40.11;101480.34;5072143;27;99015;-79
2021/05/03 08:02:39;;;;;;;;;;;;;;;13.90;40.33;101489.25;5067984;27;100796;-78
2021/05/03 08:05:06;;;;;;;;;;;;;;;14.71;39.61;101493.13;5059298;27;99890;-78
2021/05/03 08:07:31;;;;;;;;;;;;;;;14.66;39.02;101494.25;5068997;27;97772;-79
2021/05/03 08:09:59;;;;;;;;;;;;;;;14.22;40.10;101490.66;5068902;27;98388;-80
2021/05/03 08:12:25;;;;;;;;;;;;;;;13.99;40.01;101488.88;5068097;27;99403;-79
2021/05/03 08:14:52;;;;;;;;;;;;;;;13.58;40.45;101501.06;5067667;27;98895;-78
2021/05/03 08:17:18;;;;;;;;;;;;;;;13.68;41.19;101502.44;5070161;27;98951;-78
2021/05/03 08:19:45;;;;;;;;;;;;;;;14.50;39.58;101494.03;5063189;27;99049;-78
2021/05/03 08:22:11;;;;;;;;;;;;;;;13.75;39.72;101492.47;5073344;27;98913;-79
2021/05/03 08:24:37;;;;;;;;;;;;;;;14.01;40.07;101504.78;5071852;27;99178;-79
2021/05/03 08:27:05;;;;;;;;;;;;;;;14.19;39.48;101498.75;5074324;27;97666;-78
2021/05/03 08:29:31;;;;;;;;;;;;;;;14.48;39.04;101500.31;5076227;27;97368;-78
2021/05/03 08:31:57;;;;;;;;;;;;;;;14.24;38.44;101500.31;5072280;27;99005;-79
2021/05/03 08:34:24;;;;;;;;;;;;;;;14.01;38.38;101510.09;5072011;27;98893;-79
2021/05/03 08:36:52;;;;;;;;;;;;;;;14.69;38.19;101508.31;5067202;27;97317;-79
2021/05/03 08:39:20;;;;;;;;;;;;;;;14.23;38.13;101506.56;5070040;27;97097;-78
2021/05/03 08:41:46;;;;;;;;;;;;;;;14.36;38.31;101517.59;5069781;27;100374;-79
2021/05/03 08:44:12;;;;;;;;;;;;;;;14.60;38.34;101500.69;5072720;27;98774;-78
2021/05/03 08:46:42;;;;;;;;;;;;;;;14.45;37.93;101511.94;5068326;27;98619;-78
2021/05/03 08:49:16;;;;;;;;;;;;;;;14.63;37.74;101505.91;5072204;27;97633;-78
2021/05/03 08:51:46;;;;;;;;;;;;;;;15.05;37.53;101505.06;5062769;27;98882;-78
2021/05/03 08:54:18;;;;;;;;;;;;;;;14.43;37.90;101511.16;5072537;27;98967;-78
2021/05/03 08:56:44;;;;;;;;;;;;;;;13.98;38.72;101498.63;5072144;27;96794;-79
2021/05/03 08:59:11;;;;;;;;;;;;;;;14.12;38.30;101507.88;5073638;27;97292;-78
2021/05/03 09:01:38;;;;;;;;;;;;;;;14.45;37.54;101509.28;5068193;27;98743;-78
2021/05/03 09:04:04;;;;;;;;;;;;;;;14.88;35.99;101511.09;5070223;27;99251;-79
2021/05/03 09:06:30;;;;;;;;;;;;;;;14.74;35.78;101518.75;5070473;27;97306;-79
2021/05/03 09:09:05;;;;;;;;;;;;;;;14.28;36.02;101501.94;5067817;27;97036;-79
2021/05/03 09:11:30;;;;;;;;;;;;;;;14.37;36.89;101503.38;5071217;27;98991;-78
2021/05/03 09:14:07;;;;;;;;;;;;;;;14.02;37.37;101503.84;5070507;27;99795;-81
2021/05/03 09:16:32;;;;;;;;;;;;;;;13.61;38.55;101510.69;5075762;27;96915;-80
2021/05/03 09:19:00;;;;;;;;;;;;;;;13.63;39.34;101509.72;5073187;27;97348;-79
2021/05/03 09:21:29;;;;;;;;;;;;;;;14.09;37.53;101497.38;5071166;27;98984;-78
2021/05/03 09:23:59;;;;;;;;;;;;;;;14.44;37.31;101499.56;5072463;27;99222;-79
2021/05/03 09:26:32;;;;;;;;;;;;;;;14.82;36.85;101510.47;5069219;27;97627;-79
2021/05/03 09:28:58;;;;;;;;;;;;;;;14.90;35.92;101498.56;5073566;27;97045;-79
2021/05/03 09:31:24;;;;;;;;;;;;;;;14.44;35.82;101496.91;5074790;27;98928;-79
2021/05/03 09:33:50;;;;;;;;;;;;;;;14.72;35.95;101500.19;5075965;27;98246;-79
2021/05/03 09:36:21;;;;;;;;;;;;;;;14.66;36.29;101492.47;5085785;27;97920;-78
2021/05/03 09:38:47;;;;;;;;;;;;;;;15.04;35.80;101500.66;5080222;27;96879;-77
2021/05/03 09:41:17;;;;;;;;;;;;;;;15.08;35.44;101502.28;5089505;27;97847;-79
2021/05/03 09:43:44;;;;;;;;;;;;;;;15.18;34.42;101492.94;5084785;27;98168;-79
2021/05/03 09:46:29;;;;;;;;;;;;;;;15.11;35.07;101497.66;5084274;27;96884;-77
2021/05/03 09:48:56;;;;;;;;;;;;;;;14.80;35.18;101509.66;5082340;27;97817;-79
2021/05/03 09:51:36;;;;;;;;;;;;;;;14.36;35.18;101497.19;5081998;27;98775;-78
2021/05/03 09:54:07;;;;;;;;;;;;;;;15.01;34.07;101495.47;5089313;27;97840;-78
2021/05/03 09:56:50;;;;;;;;;;;;;;;15.45;33.97;101497.09;5087871;27;97175;-78
2021/05/03 09:59:25;;;;;;;;;;;;;;;15.28;33.80;101485.44;5085987;27;96690;-79
2021/05/03 10:02:05;;;;;;;;;;;;;;;14.09;35.17;101498.25;5085613;27;97821;-79
2021/05/03 10:04:33;;;;;;;;;;;;;;;14.22;35.41;101498.66;5078821;27;98908;-79
2021/05/03 10:06:59;;;;;;;;;;;;;;;13.96;36.50;101495.19;5079137;27;97871;-79
2021/05/03 10:09:27;;;;;;;;;;;;;;;14.63;35.19;101492.59;5070023;27;98099;-79
2021/05/03 10:11:53;;;;;;;;;;;;;;;15.71;33.08;101493.31;5075295;27;99312;-79
2021/05/03 10:14:19;;;;;;;;;;;;;;;16.29;32.70;101487.94;5069592;27;98938;-79
2021/05/03 10:16:44;;;;;;;;;;;;;;;15.80;32.56;101481.38;5068835;27;97693;-79
2021/05/03 10:19:11;;;;;;;;;;;;;;;16.04;32.53;101477.56;5070971;27;98652;-79
2021/05/03 10:21:38;;;;;;;;;;;;;;;15.82;32.91;101487.47;5074122;27;101815;-79
2021/05/03 10:24:04;;;;;;;;;;;;;;;15.44;32.90;101479.38;5071525;27;99013;-79
2021/05/03 10:26:30;;;;;;;;;;;;;;;15.41;33.85;101490.19;5074202;27;97142;-79
2021/05/03 10:28:57;;;;;;;;;;;;;;;15.01;33.84;101490.16;5075298;27;96846;-78
2021/05/03 10:31:24;;;;;;;;;;;;;;;14.32;35.00;101492.03;5071723;27;99258;-79
2021/05/03 10:33:50;;;;;;;;;;;;;;;14.91;33.84;101488.78;5069351;27;98924;-78
2021/05/03 10:36:31;;;;;;;;;;;;;;;15.25;33.79;101491.75;5071919;27;98496;-79
2021/05/03 10:38:56;;;;;;;;;;;;;;;15.49;33.22;101495.19;5074122;27;97678;-78
2021/05/03 10:41:24;;;;;;;;;;;;;;;15.27;33.06;101489.03;5076705;27;98882;-78
2021/05/03 10:43:52;;;;;;;;;;;;;;;15.79;32.41;101487.63;5071486;27;97719;-78
2021/05/03 10:49:41;;;;;;;;;;;;;;;15.79;31.40;101487.63;5074779;27;96897;-78
2021/05/03 10:52:11;;;;;;;;;;;;;;;15.87;30.78;101488.16;5073246;27;98158;-77
2021/05/03 10:54:49;;;;;;;;;;;;;;;15.92;30.95;101488.81;5072568;27;98795;-79
2021/05/03 10:57:45;;;;;;;;;;;;;;;16.39;30.73;101483.06;5070731;27;98518;-79
2021/05/03 11:00:27;;;;;;;;;;;;;;;15.21;32.55;101484.84;5069367;27;97091;-79
2021/05/03 11:02:53;;;;;;;;;;;;;;;15.59;32.27;101469.88;5068649;27;99263;-80
2021/05/03 11:05:23;;;;;;;;;;;;;;;16.21;31.01;101480.28;5074998;27;98193;-84
2021/05/03 11:08:15;;;;;;;;;;;;;;;15.97;30.79;101464.59;5069429;27;97142;-78
2021/05/03 11:11:07;;;;;;;;;;;;;;;15.75;31.28;101460.25;5070350;27;98869;-79
2021/05/03 11:13:39;;;;;;;;;;;;;;;16.04;31.71;101458.03;5071351;27;98692;-78
2021/05/03 11:16:19;;;;;;;;;;;;;;;16.24;31.06;101455.31;5067270;27;98828;-78
2021/05/03 11:18:46;;;;;;;;;;;;;;;15.67;31.23;101456.22;5071002;27;97369;-78
2021/05/03 11:21:15;;;;;;;;;;;;;;;15.97;31.56;101454.78;5069655;27;96910;-79
2021/05/03 11:23:41;;;;;;;;;;;;;;;15.85;31.09;101456.25;5066717;27;99934;-77
2021/05/03 11:26:29;;;;;;;;;;;;;;;15.94;31.33;101461.16;5070576;27;96878;-79
2021/05/03 11:29:04;;;;;;;;;;;;;;;16.25;30.41;101459.69;5071542;27;99154;-78
2021/05/03 11:31:31;;;;;;;;;;;;;;;15.94;30.51;101457.63;5069286;27;96917;-78
2021/05/03 11:34:07;;;;;;;;;;;;;;;16.83;29.25;101457.75;5073232;27;99123;-77
2021/05/03 11:36:37;;;;;;;;;;;;;;;16.31;30.12;101446.06;5075724;27;98794;-77
2021/05/03 11:39:10;;;;;;;;;;;;;;;16.19;29.72;101449.34;5075727;27;97768;-77
2021/05/03 11:41:56;;;;;;;;;;;;;;;16.30;30.07;101458.53;5075916;27;97018;-78
2021/05/03 11:44:40;;;;;;;;;;;;;;;16.02;30.70;101455.44;5074544;27;98825;-78
2021/05/03 11:47:06;;;;;;;;;;;;;;;15.70;31.17;101446.28;5081518;27;98266;-77
2021/05/03 11:49:41;;;;;;;;;;;;;;;16.03;30.52;101458.97;5077959;27;96814;-78
2021/05/03 11:52:07;;;;;;;;;;;;;;;16.34;30.26;101452.09;5075052;27;96761;-77
2021/05/03 11:54:33;;;;;;;;;;;;;;;17.20;29.55;101448.72;5068929;27;99035;-78
2021/05/03 11:57:01;;;;;;;;;;;;;;;17.47;29.02;101457.09;5070363;27;100941;-79
2021/05/03 11:59:27;;;;;;;;;;;;;;;16.92;29.03;101451.09;5075359;27;96853;-78
2021/05/03 12:02:00;;;;;;;;;;;;;;;17.09;28.87;101445.75;5076719;27;96887;-79
2021/05/03 12:04:33;;;;;;;;;;;;;;;16.02;29.51;101449.25;5072686;27;98006;-78
2021/05/03 12:06:59;;;;;;;;;;;;;;;16.15;29.99;101445.94;5067382;27;98458;-78
2021/05/03 12:09:25;;;;;;;;;;;;;;;16.50;29.61;101454.03;5072831;27;98794;-79
2021/05/03 12:11:54;;;;;;;;;;;;;;;16.02;29.36;101442.13;5073353;27;97635;-77
2021/05/03 12:14:36;;;;;;;;;;;;;;;16.79;29.45;101434.84;5077555;27;98309;-79
2021/05/03 12:17:02;;;;;;;;;;;;;;;16.54;29.25;101444.97;5064820;27;97965;-79
2021/05/03 12:19:28;;;;;;;;;;;;;;;16.65;29.71;101440.00;5073710;27;96896;-79
2021/05/03 12:22:00;;;;;;;;;;;;;;;16.28;29.78;101440.88;5070791;27;97297;-81
2021/05/03 12:24:33;;;;;;;;;;;;;;;16.49;29.39;101428.28;5072050;27;100197;-80
2021/05/03 12:26:59;;;;;;;;;;;;;;;16.06;30.26;101435.72;5074214;27;98915;-79
2021/05/03 12:29:26;;;;;;;;;;;;;;;16.16;30.29;101434.31;5075300;27;96882;-79
2021/05/03 12:31:53;;;;;;;;;;;;;;;16.57;29.47;101431.47;5071688;27;96888;-79
2021/05/03 12:34:21;;;;;;;;;;;;;;;17.04;28.14;101437.09;5064078;27;100425;-78
2021/05/03 12:37:05;;;;;;;;;;;;;;;17.48;27.79;101426.75;5066454;27;101496;-78
2021/05/03 12:39:32;;;;;;;;;;;;;;;17.76;27.54;101426.19;5067034;27;97280;-78
2021/05/03 12:42:09;;;;;;;;;;;;;;;17.39;27.94;101440.63;5068882;27;96976;-80
2021/05/03 12:44:38;;;;;;;;;;;;;;;16.86;29.26;101438.94;5069123;27;98283;-79
2021/05/03 12:47:15;;;;;;;;;;;;;;;16.55;29.59;101441.34;5069918;27;99933;-79
2021/05/03 12:49:41;;;;;;;;;;;;;;;16.27;30.19;101444.50;5066539;27;96824;-79
2021/05/03 12:52:10;;;;;;;;;;;;;;;16.27;30.50;101440.03;5069286;27;97753;-79